createdAt,value
2018-09-11T00:02:26.484Z,4.13
2018-09-11T00:04:55.511Z,4.10
2018-09-11T00:07:24.101Z,4.30
2018-09-11T00:09:53.130Z,4.17
2018-09-11T00:12:21.737Z,4.00
2018-09-11T00:14:50.502Z,4.07
2018-09-11T00:17:19.260Z,4.03
2018-09-11T00:19:47.902Z,3.97
2018-09-11T00:22:16.582Z,4.10
2018-09-11T00:24:45.184Z,3.57
2018-09-11T00:27:13.811Z,3.77
2018-09-11T00:29:42.837Z,4.20
2018-09-11T00:32:11.494Z,4.17
2018-09-11T00:34:40.281Z,3.90
2018-09-11T00:37:09.343Z,3.80
2018-09-11T00:39:38.200Z,4.27
2018-09-11T00:42:06.723Z,3.93
2018-09-11T00:44:35.360Z,4.50
2018-09-11T00:47:04.028Z,4.23
2018-09-11T00:49:32.829Z,4.00
2018-09-11T00:52:01.642Z,4.00
2018-09-11T00:54:30.201Z,3.90
2018-09-11T00:56:58.981Z,4.07
2018-09-11T00:59:27.658Z,4.10
2018-09-11T01:01:56.214Z,4.10
2018-09-11T01:04:24.734Z,4.03
2018-09-11T01:06:53.390Z,3.90
2018-09-11T01:09:21.953Z,4.10
2018-09-11T01:11:50.507Z,4.30
2018-09-11T01:14:19.253Z,4.00
2018-09-11T01:16:47.782Z,4.17
2018-09-11T01:19:16.348Z,4.77
2018-09-11T01:21:44.923Z,4.50
2018-09-11T01:24:13.501Z,4.40
2018-09-11T01:26:42.326Z,4.07
2018-09-11T01:29:10.874Z,4.33
2018-09-11T01:31:39.604Z,4.27
2018-09-11T01:34:08.561Z,3.60
2018-09-11T01:36:37.668Z,3.90
2018-09-11T01:39:09.021Z,4.20
2018-09-11T01:41:37.608Z,4.03
2018-09-11T01:44:06.871Z,4.27
2018-09-11T01:46:35.830Z,4.90
2018-09-11T01:49:04.844Z,3.87
2018-09-11T01:51:33.838Z,3.80
2018-09-11T01:54:02.374Z,4.00
2018-09-11T01:56:31.020Z,4.50
2018-09-11T01:58:59.556Z,4.23
2018-09-11T02:01:28.056Z,4.10
2018-09-11T02:03:56.580Z,4.57
2018-09-11T02:06:25.364Z,4.37
2018-09-11T02:08:54.302Z,4.37
2018-09-11T02:11:23.428Z,4.63
2018-09-11T02:13:52.813Z,4.17
2018-09-11T02:16:21.437Z,4.33
2018-09-11T02:18:50.110Z,3.93
2018-09-11T02:21:18.638Z,4.30
2018-09-11T02:23:47.202Z,4.60
2018-09-11T02:26:15.748Z,4.40
2018-09-11T02:28:44.289Z,4.47
2018-09-11T02:31:12.880Z,4.50
2018-09-11T02:33:41.462Z,4.20
2018-09-11T02:36:09.993Z,4.57
2018-09-11T02:38:38.603Z,4.33
2018-09-11T02:41:07.181Z,4.27
2018-09-11T02:43:36.049Z,4.13
2018-09-11T02:46:04.627Z,4.30
2018-09-11T02:48:33.482Z,4.60
2018-09-11T02:51:02.141Z,4.70
2018-09-11T02:53:30.771Z,4.63
2018-09-11T02:55:59.490Z,5.30
2018-09-11T02:58:28.247Z,5.07
2018-09-11T03:00:56.981Z,5.37
2018-09-11T03:03:25.621Z,4.83
2018-09-11T03:05:54.159Z,4.50
2018-09-11T03:08:22.864Z,4.60
2018-09-11T03:10:51.422Z,4.57
2018-09-11T03:13:20.003Z,4.80
2018-09-11T03:15:48.575Z,4.50
2018-09-11T03:18:17.297Z,4.67
2018-09-11T03:20:46.089Z,5.17
2018-09-11T03:23:14.895Z,4.93
2018-09-11T03:25:43.580Z,4.90
2018-09-11T03:28:12.599Z,4.87
2018-09-11T03:30:41.278Z,4.97
2018-09-11T03:33:10.196Z,6.27
2018-09-11T03:35:38.748Z,5.73
2018-09-11T03:38:07.599Z,6.43
2018-09-11T03:40:36.174Z,7.37
2018-09-11T03:43:05.039Z,5.57
2018-09-11T03:45:33.627Z,5.83
2018-09-11T03:48:02.183Z,5.70
2018-09-11T03:50:30.733Z,5.33
2018-09-11T03:52:59.406Z,5.80
2018-09-11T03:55:28.083Z,6.07
2018-09-11T03:57:56.702Z,6.27
2018-09-11T04:00:25.408Z,5.90
2018-09-11T04:02:53.960Z,5.70
2018-09-11T04:05:22.558Z,6.17
2018-09-11T04:07:51.130Z,5.87
2018-09-11T04:10:19.711Z,5.97
2018-09-11T04:12:48.491Z,5.73
2018-09-11T04:15:17.165Z,5.67
2018-09-11T04:17:46.045Z,6.00
2018-09-11T04:20:14.640Z,6.23
2018-09-11T04:22:43.551Z,5.80
2018-09-11T04:25:12.237Z,5.43
2018-09-11T04:27:41.302Z,5.60
2018-09-11T04:30:09.942Z,5.30
2018-09-11T04:32:38.502Z,5.30
2018-09-11T04:35:07.226Z,5.80
2018-09-11T04:37:35.967Z,5.47
2018-09-11T04:40:04.725Z,5.23
2018-09-11T04:42:33.440Z,6.43
2018-09-11T04:45:01.972Z,5.57
2018-09-11T04:47:30.869Z,6.00
2018-09-11T04:49:59.432Z,5.97
2018-09-11T04:52:28.141Z,5.60
2018-09-11T04:54:56.889Z,6.50
2018-09-11T04:57:25.567Z,5.50
2018-09-11T04:59:54.445Z,5.40
2018-09-11T05:02:23.187Z,4.83
2018-09-11T05:04:52.935Z,4.60
2018-09-11T05:07:21.560Z,4.20
2018-09-11T05:09:50.158Z,3.60
2018-09-11T05:12:18.882Z,3.27
2018-09-11T05:14:47.499Z,3.33
2018-09-11T05:17:16.389Z,3.73
2018-09-11T05:19:45.524Z,3.63
2018-09-11T05:22:14.366Z,3.10
2018-09-11T05:24:43.326Z,3.67
2018-09-11T05:27:12.043Z,3.17
2018-09-11T05:29:40.923Z,3.87
2018-09-11T05:32:09.621Z,3.33
2018-09-11T05:34:38.502Z,3.70
2018-09-11T05:37:07.093Z,3.33
2018-09-11T05:39:35.609Z,3.33
2018-09-11T05:42:04.414Z,3.27
2018-09-11T05:44:33.093Z,2.93
2018-09-11T05:47:02.037Z,3.40
2018-09-11T05:49:30.895Z,3.47
2018-09-11T05:51:59.662Z,3.97
2018-09-11T05:54:28.338Z,3.40
2018-09-11T05:56:57.138Z,3.57
2018-09-11T05:59:25.799Z,3.20
2018-09-11T06:01:54.454Z,3.80
2018-09-11T06:04:23.215Z,3.40
2018-09-11T06:06:51.823Z,3.10
2018-09-11T06:09:20.417Z,3.80
2018-09-11T06:11:49.136Z,3.90
2018-09-11T06:14:17.810Z,4.00
2018-09-11T06:16:46.616Z,3.90
2018-09-11T06:19:15.399Z,3.47
2018-09-11T06:21:43.975Z,4.03
2018-09-11T06:24:12.538Z,3.70
2018-09-11T06:26:41.089Z,3.63
2018-09-11T06:29:10.174Z,3.63
2018-09-11T06:31:38.729Z,3.80
2018-09-11T06:34:07.472Z,3.93
2018-09-11T06:36:36.339Z,4.03
2018-09-11T06:39:07.336Z,3.87
2018-09-11T06:41:35.966Z,3.70
2018-09-11T06:44:05.026Z,3.93
2018-09-11T06:46:34.141Z,3.90
2018-09-11T06:49:03.577Z,3.73
2018-09-11T06:51:32.531Z,3.37
2018-09-11T06:54:01.654Z,3.80
2018-09-11T06:56:30.309Z,3.07
2018-09-11T06:58:59.395Z,3.13
2018-09-11T07:01:28.178Z,3.90
2018-09-11T07:03:56.738Z,3.20
2018-09-11T07:06:25.310Z,3.30
2018-09-11T07:08:54.247Z,3.13
2018-09-11T07:11:23.589Z,3.53
2018-09-11T07:13:52.284Z,3.30
2018-09-11T07:16:20.994Z,3.87
2018-09-11T07:18:49.756Z,3.50
2018-09-11T07:21:18.516Z,3.30
2018-09-11T07:23:47.806Z,3.20
2018-09-11T07:26:16.706Z,2.47
2018-09-11T07:28:45.534Z,2.10
2018-09-11T07:31:14.083Z,3.10
2018-09-11T07:33:43.311Z,2.30
2018-09-11T07:36:11.947Z,2.13
2018-09-11T07:38:41.269Z,1.80
2018-09-11T07:41:10.575Z,2.17
2018-09-11T07:43:39.339Z,2.17
2018-09-11T07:46:07.942Z,2.40
2018-09-11T07:48:36.902Z,2.83
2018-09-11T07:51:05.583Z,2.70
2018-09-11T07:53:34.376Z,2.27
2018-09-11T07:56:03.070Z,2.67
2018-09-11T07:58:31.700Z,2.77
2018-09-11T08:01:00.663Z,2.47
2018-09-11T08:03:29.301Z,2.73
2018-09-11T08:05:58.241Z,2.60
2018-09-11T08:08:26.859Z,2.67
2018-09-11T08:10:55.687Z,2.70
2018-09-11T08:13:24.250Z,2.50
2018-09-11T08:15:53.101Z,2.30
2018-09-11T08:18:21.733Z,2.60
2018-09-11T08:20:50.308Z,2.00
2018-09-11T08:23:18.855Z,2.00
2018-09-11T08:25:47.456Z,2.23
2018-09-11T08:28:16.024Z,2.10
2018-09-11T08:30:44.618Z,1.80
2018-09-11T08:33:13.166Z,1.80
2018-09-11T08:35:41.770Z,1.90
2018-09-11T08:38:10.537Z,1.53
2018-09-11T08:40:39.313Z,1.73
2018-09-11T08:43:07.999Z,1.47
2018-09-11T08:45:36.614Z,1.50
2018-09-11T08:48:05.235Z,1.37
2018-09-11T08:50:34.061Z,1.50
2018-09-11T08:53:02.748Z,1.10
2018-09-11T08:55:31.344Z,1.10
2018-09-11T08:58:00.472Z,1.20
2018-09-11T09:00:29.346Z,1.50
2018-09-11T09:02:57.902Z,1.30
2018-09-11T09:05:26.555Z,1.70
2018-09-11T09:07:55.249Z,1.40
2018-09-11T09:10:24.582Z,1.87
2018-09-11T09:12:53.445Z,1.20
2018-09-11T09:15:22.021Z,1.50
2018-09-11T09:17:50.995Z,1.40
2018-09-11T09:20:20.055Z,1.37
2018-09-11T09:22:48.971Z,1.20
2018-09-11T09:25:18.117Z,1.30
2018-09-11T09:27:46.933Z,1.07
2018-09-11T09:30:15.952Z,1.30
2018-09-11T09:32:44.654Z,1.10
2018-09-11T09:35:13.313Z,1.13
2018-09-11T09:37:42.123Z,0.93
2018-09-11T09:40:11.140Z,1.20
2018-09-11T09:42:39.834Z,1.03
2018-09-11T09:45:09.472Z,1.00
2018-09-11T09:47:38.377Z,1.10
2018-09-11T09:50:06.976Z,1.20
2018-09-11T09:52:35.574Z,1.10
2018-09-11T09:55:04.506Z,0.95
2018-09-11T09:57:33.922Z,1.10
2018-09-11T10:00:02.873Z,0.98
2018-09-11T10:02:31.599Z,0.80
2018-09-11T10:05:00.366Z,1.17
2018-09-11T10:07:29.041Z,0.80
2018-09-11T10:09:57.889Z,1.07
2018-09-11T10:12:26.664Z,1.27
2018-09-11T10:14:55.547Z,1.32
2018-09-11T10:17:24.273Z,1.00
2018-09-11T10:19:53.278Z,1.30
2018-09-11T10:22:21.822Z,1.00
2018-09-11T10:24:50.464Z,1.35
2018-09-11T10:27:19.135Z,1.40
2018-09-11T10:29:47.830Z,1.02
2018-09-11T10:32:16.623Z,1.20
2018-09-11T10:34:45.188Z,1.40
2018-09-11T10:37:13.771Z,1.25
2018-09-11T10:39:43.004Z,1.30
2018-09-11T10:42:11.948Z,1.40
2018-09-11T10:44:40.678Z,1.30
2018-09-11T10:47:09.603Z,1.15
2018-09-11T10:49:38.349Z,1.50
2018-09-11T10:52:07.565Z,1.50
2018-09-11T10:54:36.386Z,1.50
2018-09-11T10:57:05.485Z,1.30
2018-09-11T10:59:34.362Z,1.30
2018-09-11T11:02:03.435Z,1.47
2018-09-11T11:04:32.346Z,1.52
2018-09-11T11:07:01.534Z,1.77
2018-09-11T11:09:30.422Z,1.40
2018-09-11T11:11:59.746Z,1.62
2018-09-11T11:14:28.612Z,1.60
2018-09-11T11:16:57.604Z,1.70
2018-09-11T11:19:26.362Z,1.30
2018-09-11T11:21:55.099Z,1.37
2018-09-11T11:24:24.004Z,1.80
2018-09-11T11:26:52.787Z,1.55
2018-09-11T11:29:21.862Z,1.30
2018-09-11T11:31:50.614Z,1.50
2018-09-11T11:34:19.274Z,1.42
2018-09-11T11:36:48.083Z,1.62
2018-09-11T11:39:16.810Z,1.37
2018-09-11T11:41:45.839Z,1.67
2018-09-11T11:44:14.833Z,1.35
2018-09-11T11:46:43.744Z,1.47
2018-09-11T11:49:12.475Z,1.65
2018-09-11T11:51:41.090Z,1.60
2018-09-11T11:54:09.829Z,1.67
2018-09-11T11:56:38.635Z,1.42
2018-09-11T11:59:07.497Z,1.52
2018-09-11T12:01:36.107Z,1.40
2018-09-11T12:04:04.756Z,1.40
2018-09-11T12:06:33.629Z,1.42
2018-09-11T12:09:02.436Z,1.80
2018-09-11T12:11:31.349Z,1.70
2018-09-11T12:14:00.274Z,1.30
2018-09-11T12:16:28.853Z,1.30
2018-09-11T12:18:57.708Z,1.62
2018-09-11T12:21:26.505Z,1.30
2018-09-11T12:23:55.487Z,1.35
2018-09-11T12:26:24.157Z,1.45
2018-09-11T12:28:52.943Z,1.22
2018-09-11T12:31:21.753Z,1.82
2018-09-11T12:33:50.436Z,1.47
2018-09-11T12:36:19.690Z,1.47
2018-09-11T12:38:48.900Z,1.75
2018-09-11T12:41:17.634Z,1.40
2018-09-11T12:43:47.003Z,1.50
2018-09-11T12:46:16.017Z,1.50
2018-09-11T12:48:44.506Z,1.20
2018-09-11T12:51:13.166Z,1.40
2018-09-11T12:53:42.255Z,3.85
2018-09-11T12:56:11.619Z,1.80
2018-09-11T12:58:40.651Z,1.60
2018-09-11T13:01:09.505Z,1.40
2018-09-11T13:03:38.586Z,1.42
2018-09-11T13:06:07.411Z,1.45
2018-09-11T13:08:36.227Z,1.60
2018-09-11T13:11:05.417Z,1.20
2018-09-11T13:13:34.223Z,1.22
2018-09-11T13:16:03.058Z,1.52
2018-09-11T13:18:31.940Z,1.55
2018-09-11T13:21:00.616Z,4.15
2018-09-11T13:23:29.561Z,1.60
2018-09-11T13:25:58.573Z,1.57
2018-09-11T13:28:27.459Z,1.42
2018-09-11T13:30:56.246Z,1.70
2018-09-11T13:33:25.226Z,1.62
2018-09-11T13:35:54.004Z,1.80
2018-09-11T13:38:22.861Z,1.50
2018-09-11T13:40:51.721Z,1.40
2018-09-11T13:43:20.730Z,1.70
2018-09-11T13:45:49.705Z,1.55
2018-09-11T13:48:18.525Z,1.60
2018-09-11T13:50:47.229Z,1.80
2018-09-11T13:53:15.858Z,1.67
2018-09-11T13:55:44.949Z,1.67
2018-09-11T13:58:13.846Z,1.62
2018-09-11T14:00:42.499Z,1.40
2018-09-11T14:03:11.116Z,1.50
2018-09-11T14:05:39.925Z,1.75
2018-09-11T14:08:09.750Z,1.42
2018-09-11T14:10:38.584Z,1.77
2018-09-11T14:13:07.642Z,1.37
2018-09-11T14:15:36.235Z,1.87
2018-09-11T14:18:04.986Z,1.45
2018-09-11T14:20:33.600Z,1.70
2018-09-11T14:23:02.463Z,1.60
2018-09-11T14:25:31.042Z,1.72
2018-09-11T14:27:59.596Z,1.50
2018-09-11T14:30:28.414Z,1.95
2018-09-11T14:32:57.426Z,1.92
2018-09-11T14:35:26.065Z,1.57
2018-09-11T14:37:54.646Z,1.62
2018-09-11T14:40:23.434Z,1.62
2018-09-11T14:42:52.545Z,1.75
2018-09-11T14:45:21.599Z,1.82
2018-09-11T14:47:50.557Z,1.72
2018-09-11T14:50:19.308Z,1.60
2018-09-11T14:52:47.871Z,1.62
2018-09-11T14:55:16.633Z,1.62
2018-09-11T14:57:45.344Z,1.75
2018-09-11T15:00:13.961Z,2.17
2018-09-11T15:02:42.592Z,2.00
2018-09-11T15:05:11.588Z,1.90
2018-09-11T15:07:40.139Z,2.50
2018-09-11T15:10:09.037Z,1.85
2018-09-11T15:12:37.617Z,1.77
2018-09-11T15:15:06.755Z,2.15
2018-09-11T15:17:35.615Z,1.98
2018-09-11T15:20:04.176Z,2.10
2018-09-11T15:22:32.833Z,1.98
2018-09-11T15:25:01.434Z,1.92
2018-09-11T15:27:30.315Z,1.90
2018-09-11T15:29:59.054Z,1.70
2018-09-11T15:32:27.544Z,2.02
2018-09-11T15:34:56.214Z,6.20
2018-09-11T15:37:25.074Z,2.12
2018-09-11T15:39:53.930Z,1.85
2018-09-11T15:42:22.886Z,2.00
2018-09-11T15:44:51.453Z,2.15
2018-09-11T15:47:20.063Z,2.05
2018-09-11T15:49:49.234Z,2.10
2018-09-11T15:52:18.122Z,1.72
2018-09-11T15:54:47.385Z,2.00
2018-09-11T15:57:15.932Z,2.00
2018-09-11T15:59:44.598Z,1.90
2018-09-11T16:02:13.470Z,1.85
2018-09-11T16:04:42.393Z,2.05
2018-09-11T16:07:11.077Z,1.80
2018-09-11T16:09:39.704Z,2.10
2018-09-11T16:12:08.250Z,2.08
2018-09-11T16:14:37.018Z,2.40
2018-09-11T16:17:05.827Z,2.30
2018-09-11T16:19:34.552Z,2.02
2018-09-11T16:22:03.609Z,2.00
2018-09-11T16:24:32.694Z,1.92
2018-09-11T16:27:01.914Z,1.90
2018-09-11T16:29:30.676Z,1.87
2018-09-11T16:31:59.438Z,1.70
2018-09-11T16:34:28.254Z,2.08
2018-09-11T16:36:57.252Z,1.80
2018-09-11T16:39:25.875Z,2.00
2018-09-11T16:41:54.660Z,1.85
2018-09-11T16:44:23.380Z,2.33
2018-09-11T16:46:52.238Z,2.25
2018-09-11T16:49:21.291Z,1.92
2018-09-11T16:51:50.095Z,1.92
2018-09-11T16:54:18.734Z,2.27
2018-09-11T16:56:47.570Z,3.17
2018-09-11T16:59:16.400Z,3.10
2018-09-11T17:01:45.430Z,2.85
2018-09-11T17:04:14.266Z,2.00
2018-09-11T17:06:42.971Z,2.10
2018-09-11T17:09:11.647Z,2.05
2018-09-11T17:11:40.736Z,1.92
2018-09-11T17:14:09.545Z,2.33
2018-09-11T17:16:38.264Z,2.25
2018-09-11T17:19:07.060Z,2.50
2018-09-11T17:21:35.766Z,2.42
2018-09-11T17:24:04.928Z,2.15
2018-09-11T17:26:33.623Z,2.00
2018-09-11T17:29:02.499Z,2.17
2018-09-11T17:31:32.165Z,2.25
2018-09-11T17:34:00.835Z,1.92
2018-09-11T17:36:29.600Z,2.17
2018-09-11T17:38:58.486Z,2.27
2018-09-11T17:41:27.308Z,2.10
2018-09-11T17:43:56.360Z,2.15
2018-09-11T17:46:25.312Z,2.00
2018-09-11T17:48:54.725Z,2.02
2018-09-11T17:51:23.829Z,2.52
2018-09-11T17:53:52.683Z,2.33
2018-09-11T17:56:21.506Z,2.37
2018-09-11T17:58:50.899Z,2.20
2018-09-11T18:01:19.715Z,2.25
2018-09-11T18:03:48.468Z,2.40
2018-09-11T18:06:17.392Z,2.17
2018-09-11T18:08:46.490Z,2.17
2018-09-11T18:11:15.830Z,2.60
2018-09-11T18:13:45.158Z,2.40
2018-09-11T18:16:13.883Z,2.70
2018-09-11T18:18:42.947Z,3.20
2018-09-11T18:21:11.941Z,2.97
2018-09-11T18:23:41.010Z,3.27
2018-09-11T18:26:10.199Z,2.90
2018-09-11T18:28:39.287Z,3.13
2018-09-11T18:31:08.171Z,2.87
2018-09-11T18:33:37.352Z,3.10
2018-09-11T18:36:06.344Z,3.27
2018-09-11T18:38:35.226Z,2.93
2018-09-11T18:41:04.404Z,3.00
2018-09-11T18:43:33.792Z,3.67
2018-09-11T18:46:02.630Z,3.40
2018-09-11T18:48:31.947Z,2.90
2018-09-11T18:51:00.825Z,3.20
2018-09-11T18:53:29.800Z,3.00
2018-09-11T18:55:58.907Z,2.83
2018-09-11T18:58:27.733Z,3.00
2018-09-11T19:00:57.905Z,2.80
2018-09-11T19:03:27.335Z,2.80
2018-09-11T19:05:56.571Z,3.27
2018-09-11T19:08:25.823Z,3.00
2018-09-11T19:10:55.098Z,3.17
2018-09-11T19:13:24.222Z,3.33
2018-09-11T19:15:53.495Z,3.20
2018-09-11T19:18:22.766Z,2.93
2018-09-11T19:20:52.048Z,2.87
2018-09-11T19:23:21.211Z,3.03
2018-09-11T19:25:50.293Z,3.53
2018-09-11T19:28:19.173Z,3.40
2018-09-11T19:30:47.994Z,3.23
2018-09-11T19:33:17.120Z,3.27
2018-09-11T19:35:45.878Z,3.70
2018-09-11T19:38:14.533Z,2.80
2018-09-11T19:40:43.787Z,3.20
2018-09-11T19:43:12.868Z,3.40
2018-09-11T19:45:42.036Z,3.77
2018-09-11T19:48:10.928Z,3.23
2018-09-11T19:50:39.765Z,3.83
2018-09-11T19:53:08.872Z,3.70
2018-09-11T19:55:37.984Z,3.97
2018-09-11T19:58:07.006Z,4.07
2018-09-11T20:00:35.876Z,4.00
2018-09-11T20:03:05.087Z,4.20
2018-09-11T20:05:34.114Z,4.17
2018-09-11T20:08:03.213Z,3.73
2018-09-11T20:10:31.907Z,3.63
2018-09-11T20:13:00.788Z,3.70
2018-09-11T20:15:29.624Z,4.00
2018-09-11T20:17:58.546Z,3.87
2018-09-11T20:20:27.415Z,3.83
2018-09-11T20:22:56.191Z,3.83
2018-09-11T20:25:24.854Z,3.90
2018-09-11T20:27:53.832Z,4.20
2018-09-11T20:30:22.378Z,3.90
2018-09-11T20:32:51.039Z,4.27
2018-09-11T20:35:19.946Z,4.43
2018-09-11T20:37:49.006Z,4.40
2018-09-11T20:40:17.769Z,4.73
2018-09-11T20:42:46.345Z,3.93
2018-09-11T20:45:15.342Z,4.40
2018-09-11T20:47:44.152Z,3.80
2018-09-11T20:50:13.162Z,4.40
2018-09-11T20:52:41.859Z,3.93
2018-09-11T20:55:10.659Z,3.80
2018-09-11T20:57:39.439Z,4.40
2018-09-11T21:00:08.568Z,4.50
2018-09-11T21:02:37.581Z,4.30
2018-09-11T21:05:06.175Z,4.13
2018-09-11T21:07:35.088Z,4.33
2018-09-11T21:10:03.712Z,4.00
2018-09-11T21:12:32.528Z,4.50
2018-09-11T21:15:01.372Z,4.47
2018-09-11T21:17:30.074Z,4.13
2018-09-11T21:19:58.877Z,4.50
2018-09-11T21:22:27.651Z,4.30
2018-09-11T21:24:56.502Z,4.40
2018-09-11T21:27:25.299Z,4.30
2018-09-11T21:29:53.818Z,4.40
2018-09-11T21:32:22.755Z,4.67
2018-09-11T21:34:51.300Z,5.03
2018-09-11T21:37:19.869Z,4.20
2018-09-11T21:39:48.590Z,3.90
2018-09-11T21:42:17.223Z,4.47
2018-09-11T21:44:46.115Z,4.90
2018-09-11T21:47:14.727Z,4.20
2018-09-11T21:49:43.672Z,4.47
2018-09-11T21:52:12.381Z,5.20
2018-09-11T21:54:41.170Z,4.33
2018-09-11T21:57:09.710Z,4.30
2018-09-11T21:59:38.274Z,4.50
2018-09-11T22:02:06.958Z,4.70
2018-09-11T22:04:35.557Z,4.90
2018-09-11T22:07:04.574Z,4.67
2018-09-11T22:09:33.336Z,4.37
2018-09-11T22:12:02.032Z,4.57
2018-09-11T22:14:30.643Z,4.77
2018-09-11T22:16:59.372Z,4.73
2018-09-11T22:19:27.940Z,4.90
2018-09-11T22:21:57.056Z,4.60
2018-09-11T22:24:25.622Z,4.50
2018-09-11T22:26:54.163Z,4.43
2018-09-11T22:29:22.719Z,4.40
2018-09-11T22:31:51.299Z,4.77
2018-09-11T22:34:20.206Z,4.53
2018-09-11T22:36:48.762Z,4.27
2018-09-11T22:39:17.467Z,4.67
2018-09-11T22:41:46.019Z,4.43
2018-09-11T22:58:46.427Z,4.13
2018-09-11T23:01:14.996Z,4.47
2018-09-11T23:03:43.539Z,4.70
2018-09-11T23:06:12.728Z,5.03
2018-09-11T23:08:41.779Z,4.77
2018-09-11T23:11:10.575Z,4.27
2018-09-11T23:13:39.620Z,4.27
2018-09-11T23:16:11.963Z,4.40
2018-09-11T23:18:40.687Z,4.47
2018-09-11T23:21:09.412Z,4.90
2018-09-11T23:23:37.983Z,4.50
2018-09-11T23:26:06.535Z,4.43
2018-09-11T23:28:35.071Z,4.70
2018-09-11T23:31:03.750Z,4.60
2018-09-11T23:33:32.268Z,4.73
2018-09-11T23:36:02.289Z,4.40
2018-09-11T23:38:30.869Z,4.43
2018-09-11T23:40:59.609Z,4.33
2018-09-11T23:43:28.125Z,4.67
2018-09-11T23:45:57.085Z,4.20
2018-09-11T23:48:25.775Z,4.40
2018-09-11T23:50:54.458Z,4.77
2018-09-11T23:53:23.045Z,4.47
2018-09-11T23:55:51.593Z,4.20
2018-09-11T23:58:20.235Z,4.33
